Terminal Aerodrome Forecast
Issued by NWS Wakefield, VA

Home | Current Version | Previous Version | Text Only | Print | Product List | Glossary On
Versions: 1 2 3 4 5 6 7 8 9 10 11 12
000
FTUS41 KAKQ 272300
TAFSBY
TAF
KSBY 272320Z 2800/2824 19005KT P6SM FEW120 BKN250
     FM280500 19004KT P6SM BKN120 OVC250
     FM281400 23007KT P6SM OVC080
     FM281900 25008KT P6SM -RA OVC050=

USA.gov is the U.S. government's official web portal to all federal, state and local government web resources and services.